Time;durP1;ratioP1;P1;durP2;ratioP2;P2;SDS_P1;SDS_P2;PMS_P1;PMS_P2;Temp;Humidity;BMP_temperature;BMP_pressure;BME280_temperature;BME280_humidity;BME280_pressure;Samples;Min_cycle;Max_cycle;Signal;HPM_P1;HPM_P2
2023/09/24 00:00:59;;;;;;;;;1.75;0.00;;;;;;;;5028210;28;9605;-77
2023/09/24 00:03:25;;;;;;;;;1.75;0.75;;;;;;;;5029070;28;9612;-77
2023/09/24 00:05:51;;;;;;;;;1.00;1.00;;;;;;;;5028887;28;10633;-76
2023/09/24 00:08:17;;;;;;;;;2.75;2.00;;;;;;;;5028676;28;11537;-77
2023/09/24 00:10:46;;;;;;;;;3.00;1.00;;;;;;;;5028970;28;10655;-76
2023/09/24 00:13:11;;;;;;;;;0.00;0.00;;;;;;;;5028628;28;10655;-77
2023/09/24 00:15:37;;;;;;;;;1.00;1.00;;;;;;;;5028713;28;10514;-75
2023/09/24 00:18:03;;;;;;;;;3.25;1.00;;;;;;;;5028354;28;8825;-77
2023/09/24 00:20:28;;;;;;;;;1.00;1.00;;;;;;;;5028909;28;8999;-77
2023/09/24 00:22:53;;;;;;;;;0.00;0.00;;;;;;;;5032012;28;11517;-77
2023/09/24 00:25:21;;;;;;;;;0.50;0.50;;;;;;;;5032772;28;8798;-76
2023/09/24 00:27:46;;;;;;;;;0.00;0.00;;;;;;;;5033205;28;8908;-77
2023/09/24 00:30:13;;;;;;;;;1.00;1.00;;;;;;;;5032436;28;10555;-75
2023/09/24 00:32:38;;;;;;;;;0.75;0.00;;;;;;;;5032558;28;8839;-75
2023/09/24 00:35:05;;;;;;;;;1.00;1.00;;;;;;;;5031839;28;10506;-75
2023/09/24 00:37:32;;;;;;;;;3.00;0.25;;;;;;;;5032447;28;8943;-75
2023/09/24 00:39:57;;;;;;;;;0.00;0.00;;;;;;;;5032319;28;10463;-74
2023/09/24 00:42:27;;;;;;;;;2.00;2.00;;;;;;;;5032153;28;10594;-74
2023/09/24 00:44:52;;;;;;;;;1.00;0.00;;;;;;;;5014137;28;9572;-75
2023/09/24 00:47:18;;;;;;;;;1.50;1.00;;;;;;;;5032584;28;10483;-76
2023/09/24 00:49:43;;;;;;;;;1.00;1.00;;;;;;;;5031110;28;8825;-77
2023/09/24 00:52:10;;;;;;;;;1.00;1.00;;;;;;;;5030692;28;9571;-76
2023/09/24 00:54:36;;;;;;;;;1.75;0.75;;;;;;;;5032315;28;9726;-75
2023/09/24 00:57:02;;;;;;;;;0.00;0.00;;;;;;;;5031971;28;10663;-75
2023/09/24 00:59:30;;;;;;;;;0.00;0.00;;;;;;;;5031786;28;10536;-75
2023/09/24 01:01:57;;;;;;;;;1.00;1.00;;;;;;;;5032121;28;8905;-75
2023/09/24 01:04:22;;;;;;;;;0.50;0.50;;;;;;;;5032265;28;10379;-76
2023/09/24 01:06:48;;;;;;;;;1.50;0.75;;;;;;;;5032351;28;10488;-76
2023/09/24 01:09:20;;;;;;;;;1.00;1.00;;;;;;;;5031714;28;9328;-77
2023/09/24 01:11:45;;;;;;;;;1.00;1.00;;;;;;;;5032396;28;8797;-76
2023/09/24 01:14:11;;;;;;;;;0.00;0.00;;;;;;;;5032138;28;10565;-76
2023/09/24 01:16:37;;;;;;;;;1.50;0.25;;;;;;;;5032143;28;8855;-77
2023/09/24 01:19:03;;;;;;;;;0.00;0.00;;;;;;;;5032140;28;10504;-76
2023/09/24 01:21:30;;;;;;;;;0.00;0.00;;;;;;;;5032153;28;10552;-76
2023/09/24 01:23:58;;;;;;;;;0.00;0.00;;;;;;;;5032234;28;8790;-76
2023/09/24 01:26:27;;;;;;;;;0.00;0.00;;;;;;;;5032022;28;10337;-76
2023/09/24 01:28:52;;;;;;;;;0.00;0.00;;;;;;;;5031596;28;10306;-76
2023/09/24 01:31:21;;;;;;;;;0.00;0.00;;;;;;;;5031695;28;10343;-76
2023/09/24 01:33:49;;;;;;;;;0.00;0.00;;;;;;;;5031645;28;8912;-75
2023/09/24 01:36:15;;;;;;;;;0.00;0.00;;;;;;;;5030451;28;10376;-76
2023/09/24 01:38:41;;;;;;;;;0.00;0.00;;;;;;;;5031690;28;10314;-75
2023/09/24 01:41:10;;;;;;;;;0.00;0.00;;;;;;;;5031577;28;9493;-75
2023/09/24 01:43:46;;;;;;;;;0.00;0.00;;;;;;;;5031588;28;10373;-76
2023/09/24 01:46:15;;;;;;;;;0.00;0.00;;;;;;;;5031467;28;10444;-75
2023/09/24 01:48:40;;;;;;;;;0.00;0.00;;;;;;;;5030144;28;10308;-76
2023/09/24 01:51:11;;;;;;;;;0.00;0.00;;;;;;;;5031681;28;11249;-76
2023/09/24 01:53:38;;;;;;;;;0.00;0.00;;;;;;;;5031920;28;8770;-75
2023/09/24 01:56:06;;;;;;;;;0.25;0.25;;;;;;;;5031253;28;10637;-72
2023/09/24 01:58:31;;;;;;;;;0.50;0.50;;;;;;;;5031276;28;10546;-71
2023/09/24 02:00:57;;;;;;;;;0.00;0.00;;;;;;;;5030940;28;10475;-71
2023/09/24 02:03:22;;;;;;;;;0.50;0.50;;;;;;;;5030937;28;8914;-72
2023/09/24 02:05:47;;;;;;;;;0.00;0.00;;;;;;;;5030673;28;8822;-72
2023/09/24 02:08:14;;;;;;;;;1.00;1.00;;;;;;;;5030831;28;8786;-72
2023/09/24 02:10:40;;;;;;;;;0.25;0.00;;;;;;;;5030992;28;8802;-72
2023/09/24 02:13:06;;;;;;;;;1.00;1.00;;;;;;;;5030683;28;10831;-72
2023/09/24 02:15:32;;;;;;;;;0.00;0.00;;;;;;;;5012885;28;11054;-73
2023/09/24 02:17:57;;;;;;;;;0.00;0.00;;;;;;;;5031138;28;11524;-73
2023/09/24 02:22:49;;;;;;;;;0.00;0.00;;;;;;;;5030855;28;9501;-72
2023/09/24 02:25:15;;;;;;;;;0.00;0.00;;;;;;;;5029824;28;8851;-73
2023/09/24 02:27:41;;;;;;;;;0.00;0.00;;;;;;;;5030345;28;10691;-73
2023/09/24 02:30:08;;;;;;;;;0.75;0.00;;;;;;;;5012607;28;10622;-73
2023/09/24 02:32:33;;;;;;;;;0.00;0.00;;;;;;;;5030960;28;8790;-73
2023/09/24 02:34:59;;;;;;;;;0.25;0.00;;;;;;;;5012807;28;11344;-74
2023/09/24 02:37:27;;;;;;;;;1.00;0.00;;;;;;;;5030562;28;8828;-74
2023/09/24 02:39:54;;;;;;;;;0.25;0.00;;;;;;;;5030119;28;9560;-74
2023/09/24 02:42:20;;;;;;;;;1.50;0.00;;;;;;;;5030337;28;10854;-73
2023/09/24 02:44:47;;;;;;;;;0.00;0.00;;;;;;;;5029167;28;11505;-72
2023/09/24 02:47:13;;;;;;;;;1.00;1.00;;;;;;;;5030166;28;10890;-74
2023/09/24 02:49:39;;;;;;;;;1.00;1.00;;;;;;;;5030245;28;10830;-73
2023/09/24 02:52:04;;;;;;;;;0.00;0.00;;;;;;;;5030129;28;11561;-73
2023/09/24 02:54:30;;;;;;;;;1.75;1.00;;;;;;;;5029911;28;8816;-73
2023/09/24 02:56:56;;;;;;;;;3.00;0.00;;;;;;;;5029925;28;8795;-73
2023/09/24 02:59:21;;;;;;;;;4.00;0.25;;;;;;;;5029129;28;8814;-72
2023/09/24 03:01:46;;;;;;;;;0.00;0.00;;;;;;;;5029495;28;8838;-72
2023/09/24 03:04:12;;;;;;;;;3.75;0.00;;;;;;;;5029768;28;8794;-72
2023/09/24 03:06:37;;;;;;;;;0.25;0.25;;;;;;;;5029784;28;8818;-72
2023/09/24 03:09:04;;;;;;;;;1.00;0.25;;;;;;;;5029664;28;8778;-72
2023/09/24 03:11:29;;;;;;;;;0.00;0.00;;;;;;;;5029590;28;8794;-72
2023/09/24 03:13:54;;;;;;;;;0.00;0.00;;;;;;;;5029294;28;11105;-72
2023/09/24 03:16:20;;;;;;;;;0.00;0.00;;;;;;;;5028661;28;8822;-72
2023/09/24 03:18:46;;;;;;;;;0.50;0.00;;;;;;;;5029410;28;9856;-73
2023/09/24 03:21:15;;;;;;;;;0.00;0.00;;;;;;;;5029414;28;9630;-72
2023/09/24 03:23:40;;;;;;;;;0.00;0.00;;;;;;;;5029306;28;10608;-72
2023/09/24 03:26:06;;;;;;;;;2.00;0.00;;;;;;;;5029121;28;10676;-72
2023/09/24 03:28:31;;;;;;;;;0.50;0.50;;;;;;;;5029299;28;8786;-72
2023/09/24 03:30:57;;;;;;;;;0.00;0.00;;;;;;;;5028693;28;9593;-72
2023/09/24 03:33:22;;;;;;;;;0.00;0.00;;;;;;;;5029241;28;8872;-72
2023/09/24 03:35:47;;;;;;;;;1.25;0.00;;;;;;;;5029208;28;8971;-72
2023/09/24 03:38:13;;;;;;;;;0.00;0.00;;;;;;;;5029221;28;8786;-72
2023/09/24 03:40:38;;;;;;;;;0.50;0.50;;;;;;;;5029164;28;8833;-72
2023/09/24 03:43:03;;;;;;;;;0.00;0.00;;;;;;;;5026408;28;8829;-72
2023/09/24 03:45:29;;;;;;;;;0.00;0.00;;;;;;;;5028781;28;8794;-72
2023/09/24 03:47:54;;;;;;;;;3.25;0.00;;;;;;;;5029401;28;8791;-72
2023/09/24 03:50:20;;;;;;;;;0.00;0.00;;;;;;;;5027360;28;8817;-72
2023/09/24 03:52:46;;;;;;;;;0.00;0.00;;;;;;;;5027668;28;8828;-73
2023/09/24 03:55:12;;;;;;;;;0.00;0.00;;;;;;;;5011123;28;8876;-72
2023/09/24 03:57:38;;;;;;;;;1.00;1.00;;;;;;;;5028959;28;10623;-72
2023/09/24 04:00:22;;;;;;;;;3.00;3.00;;;;;;;;5028756;28;8854;-72
2023/09/24 04:02:49;;;;;;;;;3.50;2.75;;;;;;;;5027626;28;8802;-72
2023/09/24 04:05:17;;;;;;;;;2.25;1.00;;;;;;;;5028717;28;11051;-73
2023/09/24 04:07:43;;;;;;;;;1.00;1.00;;;;;;;;5028581;28;10756;-73
2023/09/24 04:10:09;;;;;;;;;0.25;0.00;;;;;;;;5028354;28;10838;-73
2023/09/24 04:12:34;;;;;;;;;2.75;1.00;;;;;;;;5028641;28;10877;-73
2023/09/24 04:15:00;;;;;;;;;0.75;0.75;;;;;;;;5028739;28;8883;-73
2023/09/24 04:17:26;;;;;;;;;2.25;1.50;;;;;;;;5028590;28;9545;-73
2023/09/24 04:19:52;;;;;;;;;1.00;1.00;;;;;;;;5028519;28;10673;-73
2023/09/24 04:22:17;;;;;;;;;1.75;1.00;;;;;;;;5002534;28;8821;-72
2023/09/24 04:24:42;;;;;;;;;0.75;0.75;;;;;;;;5028451;28;8778;-72
2023/09/24 04:27:08;;;;;;;;;1.00;1.00;;;;;;;;5010300;28;8814;-72
2023/09/24 04:29:34;;;;;;;;;0.50;0.50;;;;;;;;5028962;28;8805;-72
2023/09/24 04:31:59;;;;;;;;;3.00;1.00;;;;;;;;5028362;28;8790;-70
2023/09/24 04:34:24;;;;;;;;;1.00;1.00;;;;;;;;5028466;28;8830;-72
2023/09/24 04:36:50;;;;;;;;;1.00;1.00;;;;;;;;5028471;28;8806;-71
2023/09/24 04:39:15;;;;;;;;;0.75;0.75;;;;;;;;5028641;28;8818;-72
2023/09/24 04:41:42;;;;;;;;;0.00;0.00;;;;;;;;5028309;28;8809;-72
2023/09/24 04:44:07;;;;;;;;;1.00;1.00;;;;;;;;5028506;28;8881;-72
2023/09/24 04:46:33;;;;;;;;;1.00;1.00;;;;;;;;5027848;28;10799;-72
2023/09/24 04:48:59;;;;;;;;;1.00;1.00;;;;;;;;5028937;28;8750;-73
2023/09/24 04:51:25;;;;;;;;;2.25;1.75;;;;;;;;5032754;28;8828;-72
2023/09/24 04:53:50;;;;;;;;;1.00;1.00;;;;;;;;5028387;28;10607;-72
2023/09/24 04:56:16;;;;;;;;;3.00;3.00;;;;;;;;5028782;28;8802;-73
2023/09/24 04:58:41;;;;;;;;;1.00;1.00;;;;;;;;5029202;28;8881;-74
2023/09/24 05:01:07;;;;;;;;;1.00;0.00;;;;;;;;5028357;28;8949;-73
2023/09/24 05:03:36;;;;;;;;;0.00;0.00;;;;;;;;5028684;28;8782;-72
2023/09/24 05:06:03;;;;;;;;;0.25;0.25;;;;;;;;5029310;28;10641;-72
2023/09/24 05:08:29;;;;;;;;;0.00;0.00;;;;;;;;5030874;28;10468;-73
2023/09/24 05:10:54;;;;;;;;;0.00;0.00;;;;;;;;5032537;28;10778;-72
2023/09/24 05:13:20;;;;;;;;;0.00;0.00;;;;;;;;5032099;28;8814;-73
2023/09/24 05:15:50;;;;;;;;;2.00;0.00;;;;;;;;5031837;28;8786;-71
2023/09/24 05:18:16;;;;;;;;;0.75;0.75;;;;;;;;5032287;28;8852;-69
2023/09/24 05:20:41;;;;;;;;;0.00;0.00;;;;;;;;5032021;28;10643;-70
2023/09/24 05:23:07;;;;;;;;;0.25;0.00;;;;;;;;5032299;28;8963;-69
2023/09/24 05:25:36;;;;;;;;;0.00;0.00;;;;;;;;5031770;28;8793;-68
2023/09/24 05:28:05;;;;;;;;;0.00;0.00;;;;;;;;5030614;28;8805;-68
2023/09/24 05:30:30;;;;;;;;;0.00;0.00;;;;;;;;5031752;28;10531;-68
2023/09/24 05:32:56;;;;;;;;;0.00;0.00;;;;;;;;5032000;28;10655;-68
2023/09/24 05:35:24;;;;;;;;;0.25;0.00;;;;;;;;5031871;28;9565;-69
2023/09/24 05:37:50;;;;;;;;;0.75;0.00;;;;;;;;5031633;28;8797;-69
2023/09/24 05:40:15;;;;;;;;;0.00;0.00;;;;;;;;5031201;28;10429;-70
2023/09/24 05:42:41;;;;;;;;;0.00;0.00;;;;;;;;5031889;28;10458;-69
2023/09/24 05:45:07;;;;;;;;;1.25;1.25;;;;;;;;5031543;28;8937;-67
2023/09/24 05:47:32;;;;;;;;;0.00;0.00;;;;;;;;5013949;28;8868;-70
2023/09/24 05:49:58;;;;;;;;;0.00;0.00;;;;;;;;5031295;28;8849;-66
2023/09/24 05:52:23;;;;;;;;;0.00;0.00;;;;;;;;5030971;28;8844;-68
2023/09/24 05:54:49;;;;;;;;;0.00;0.00;;;;;;;;5031264;28;8810;-66
2023/09/24 05:57:14;;;;;;;;;1.00;1.00;;;;;;;;5030822;28;8810;-65
2023/09/24 05:59:40;;;;;;;;;0.00;0.00;;;;;;;;5031125;28;8894;-66
2023/09/24 06:02:06;;;;;;;;;1.50;1.00;;;;;;;;5013112;28;9887;-65
2023/09/24 06:04:31;;;;;;;;;1.00;0.00;;;;;;;;5031649;28;8879;-67
2023/09/24 06:06:56;;;;;;;;;0.50;0.00;;;;;;;;5031042;28;9539;-65
2023/09/24 06:09:22;;;;;;;;;1.00;1.00;;;;;;;;5030988;28;8797;-67
2023/09/24 06:11:49;;;;;;;;;3.00;2.75;;;;;;;;5030966;28;8798;-63
2023/09/24 06:14:14;;;;;;;;;0.00;0.00;;;;;;;;5027048;28;8832;-66
2023/09/24 06:16:39;;;;;;;;;0.00;0.00;;;;;;;;5028650;28;10109;-66
2023/09/24 06:19:05;;;;;;;;;0.25;0.25;;;;;;;;5028829;28;8801;-65
2023/09/24 06:21:31;;;;;;;;;0.00;0.00;;;;;;;;5028966;28;8895;-64
2023/09/24 06:23:57;;;;;;;;;0.00;0.00;;;;;;;;5029103;28;8899;-65
2023/09/24 06:26:22;;;;;;;;;0.00;0.00;;;;;;;;5029148;28;10102;-65
2023/09/24 06:28:48;;;;;;;;;0.00;0.00;;;;;;;;5027981;28;8794;-64
2023/09/24 06:31:13;;;;;;;;;1.00;0.00;;;;;;;;5030174;28;9585;-63
2023/09/24 06:33:38;;;;;;;;;0.00;0.00;;;;;;;;5030263;28;8802;-64
2023/09/24 06:36:04;;;;;;;;;0.00;0.00;;;;;;;;5029936;28;8883;-65
2023/09/24 06:38:30;;;;;;;;;0.00;0.00;;;;;;;;5028735;28;8798;-66
2023/09/24 06:41:02;;;;;;;;;0.00;0.00;;;;;;;;5030378;28;8818;-65
2023/09/24 06:43:28;;;;;;;;;0.00;0.00;;;;;;;;5030024;28;11398;-66
2023/09/24 06:45:57;;;;;;;;;0.00;0.00;;;;;;;;5029869;28;9972;-66
2023/09/24 06:48:23;;;;;;;;;2.00;2.00;;;;;;;;5030255;28;9761;-69
2023/09/24 06:50:49;;;;;;;;;0.00;0.00;;;;;;;;5027710;28;10290;-67
2023/09/24 06:53:14;;;;;;;;;0.00;0.00;;;;;;;;5028725;28;10020;-66
2023/09/24 06:55:40;;;;;;;;;0.00;0.00;;;;;;;;5027984;28;11423;-66
2023/09/24 06:58:05;;;;;;;;;0.00;0.00;;;;;;;;5029291;28;8790;-66
2023/09/24 07:00:31;;;;;;;;;0.00;0.00;;;;;;;;5011687;28;8960;-66
2023/09/24 07:02:56;;;;;;;;;1.50;0.00;;;;;;;;5029258;28;8918;-66
2023/09/24 07:05:22;;;;;;;;;4.00;2.00;;;;;;;;5029544;28;8810;-66
2023/09/24 07:07:47;;;;;;;;;0.00;0.00;;;;;;;;5029183;28;8896;-66
2023/09/24 07:10:13;;;;;;;;;0.00;0.00;;;;;;;;5029292;28;8830;-66
2023/09/24 07:12:39;;;;;;;;;0.00;0.00;;;;;;;;5029038;28;9556;-66
2023/09/24 07:15:05;;;;;;;;;0.00;0.00;;;;;;;;5029231;28;8911;-65
2023/09/24 07:17:30;;;;;;;;;0.00;0.00;;;;;;;;5029034;28;10647;-66
2023/09/24 07:19:56;;;;;;;;;0.75;0.75;;;;;;;;5029043;28;9869;-66
2023/09/24 07:22:26;;;;;;;;;0.00;0.00;;;;;;;;5029258;28;8903;-65
2023/09/24 07:24:52;;;;;;;;;0.00;0.00;;;;;;;;5029350;28;8913;-65
2023/09/24 07:27:17;;;;;;;;;0.00;0.00;;;;;;;;5028312;28;9737;-66
2023/09/24 07:29:43;;;;;;;;;0.00;0.00;;;;;;;;5028752;28;8944;-65
2023/09/24 07:32:09;;;;;;;;;0.00;0.00;;;;;;;;5028856;28;8782;-66
2023/09/24 07:34:34;;;;;;;;;0.00;0.00;;;;;;;;5011315;28;9892;-66
2023/09/24 07:37:00;;;;;;;;;0.25;0.00;;;;;;;;5029489;28;8879;-72
2023/09/24 07:39:25;;;;;;;;;0.00;0.00;;;;;;;;5029537;28;8798;-69
2023/09/24 07:41:51;;;;;;;;;0.00;0.00;;;;;;;;5029084;28;8813;-75
2023/09/24 07:44:18;;;;;;;;;0.00;0.00;;;;;;;;5029143;28;8817;-73
2023/09/24 07:46:44;;;;;;;;;0.00;0.00;;;;;;;;5028563;28;8829;-70
2023/09/24 07:49:09;;;;;;;;;0.00;0.00;;;;;;;;5027850;28;9709;-69
2023/09/24 07:51:34;;;;;;;;;0.00;0.00;;;;;;;;5028488;28;8826;-68
2023/09/24 07:54:04;;;;;;;;;0.00;0.00;;;;;;;;5028210;28;9524;-70
2023/09/24 07:56:30;;;;;;;;;0.00;0.00;;;;;;;;5028331;28;8793;-69
2023/09/24 07:58:56;;;;;;;;;0.00;0.00;;;;;;;;5027726;28;9970;-69
2023/09/24 08:01:22;;;;;;;;;0.00;0.00;;;;;;;;5023863;28;9671;-71
2023/09/24 08:03:48;;;;;;;;;0.00;0.00;;;;;;;;5028097;28;8838;-71
2023/09/24 08:06:14;;;;;;;;;0.00;0.00;;;;;;;;5029260;28;9560;-72
2023/09/24 08:08:39;;;;;;;;;0.00;0.00;;;;;;;;5028798;28;8798;-74
2023/09/24 08:11:05;;;;;;;;;0.00;0.00;;;;;;;;5029474;28;8928;-73
2023/09/24 08:13:31;;;;;;;;;0.00;0.00;;;;;;;;5027828;28;8805;-75
2023/09/24 08:15:56;;;;;;;;;0.00;0.00;;;;;;;;5029726;28;8778;-76
2023/09/24 08:18:22;;;;;;;;;0.00;0.00;;;;;;;;5028965;28;8791;-76
2023/09/24 08:20:49;;;;;;;;;0.75;0.00;;;;;;;;5029422;28;8817;-75
2023/09/24 08:23:14;;;;;;;;;0.25;0.00;;;;;;;;5028258;28;8908;-75
2023/09/24 08:25:40;;;;;;;;;0.00;0.00;;;;;;;;5030599;28;9516;-74
2023/09/24 08:28:06;;;;;;;;;0.00;0.00;;;;;;;;5031454;28;8786;-76
2023/09/24 08:30:32;;;;;;;;;0.00;0.00;;;;;;;;5030114;28;9218;-76
2023/09/24 08:32:58;;;;;;;;;0.00;0.00;;;;;;;;5028251;28;8889;-75
2023/09/24 08:35:24;;;;;;;;;0.00;0.00;;;;;;;;5029409;28;8897;-75
2023/09/24 08:38:01;;;;;;;;;0.00;0.00;;;;;;;;5027610;28;10361;-75
2023/09/24 08:40:29;;;;;;;;;0.00;0.00;;;;;;;;5027466;28;8845;-75
2023/09/24 08:42:55;;;;;;;;;1.00;0.00;;;;;;;;5029908;28;8921;-74
2023/09/24 08:45:20;;;;;;;;;0.00;0.00;;;;;;;;5032317;28;8828;-71
2023/09/24 08:47:47;;;;;;;;;0.00;0.00;;;;;;;;5032711;28;8794;-70
2023/09/24 08:50:12;;;;;;;;;0.00;0.00;;;;;;;;5031642;28;8853;-72
2023/09/24 08:52:39;;;;;;;;;0.00;0.00;;;;;;;;5032250;28;8798;-71
2023/09/24 08:55:06;;;;;;;;;0.00;0.00;;;;;;;;5030905;28;8848;-70
2023/09/24 08:57:32;;;;;;;;;0.00;0.00;;;;;;;;5031921;28;8841;-72
2023/09/24 08:59:57;;;;;;;;;0.00;0.00;;;;;;;;5031825;28;8802;-74
2023/09/24 09:02:23;;;;;;;;;0.00;0.00;;;;;;;;5031938;28;8899;-72
2023/09/24 09:04:49;;;;;;;;;0.00;0.00;;;;;;;;5032098;28;8802;-72
2023/09/24 09:07:16;;;;;;;;;0.00;0.00;;;;;;;;5032048;28;8928;-76
2023/09/24 09:09:41;;;;;;;;;0.00;0.00;;;;;;;;5032131;28;8790;-74
2023/09/24 09:12:17;;;;;;;;;0.00;0.00;;;;;;;;5031625;28;8824;-71
2023/09/24 09:14:43;;;;;;;;;0.00;0.00;;;;;;;;5031669;28;8797;-74
2023/09/24 09:17:08;;;;;;;;;0.00;0.00;;;;;;;;5031069;28;8813;-74
2023/09/24 09:19:48;;;;;;;;;0.00;0.00;;;;;;;;5031943;28;8836;-75
2023/09/24 09:22:20;;;;;;;;;0.00;0.00;;;;;;;;5031305;28;8821;-73
2023/09/24 09:24:46;;;;;;;;;0.00;0.00;;;;;;;;5029808;28;8822;-72
2023/09/24 09:27:11;;;;;;;;;0.00;0.00;;;;;;;;5029413;28;8899;-72
2023/09/24 09:29:36;;;;;;;;;0.00;0.00;;;;;;;;5029646;28;8806;-75
2023/09/24 09:32:02;;;;;;;;;0.00;0.00;;;;;;;;5029545;28;8821;-72
2023/09/24 09:34:29;;;;;;;;;0.00;0.00;;;;;;;;5029616;28;8798;-74
2023/09/24 09:37:13;;;;;;;;;0.00;0.00;;;;;;;;5029403;28;9258;-77
2023/09/24 09:39:39;;;;;;;;;0.00;0.00;;;;;;;;5030812;28;8798;-77
2023/09/24 09:42:06;;;;;;;;;0.00;0.00;;;;;;;;5029703;28;8994;-78
2023/09/24 09:44:32;;;;;;;;;0.00;0.00;;;;;;;;5030359;28;8832;-79
2023/09/24 09:47:00;;;;;;;;;0.00;0.00;;;;;;;;5012017;28;8904;-79
2023/09/24 09:49:26;;;;;;;;;0.00;0.00;;;;;;;;5043676;23;8880;-80
2023/09/24 09:51:52;;;;;;;;;0.00;0.00;;;;;;;;5030775;28;8851;-75
2023/09/24 09:54:17;;;;;;;;;0.00;0.00;;;;;;;;5031290;28;11571;-80
2023/09/24 09:56:43;;;;;;;;;0.00;0.00;;;;;;;;5012823;28;8938;-74
2023/09/24 09:59:09;;;;;;;;;0.00;0.00;;;;;;;;5030616;28;8898;-77
2023/09/24 10:01:34;;;;;;;;;0.00;0.00;;;;;;;;5030586;28;8936;-76
2023/09/24 10:04:02;;;;;;;;;0.00;0.00;;;;;;;;5030565;28;8823;-87
2023/09/24 10:06:28;;;;;;;;;0.00;0.00;;;;;;;;5031797;28;8792;-80
2023/09/24 10:08:53;;;;;;;;;0.00;0.00;;;;;;;;5029977;28;8822;-81
2023/09/24 10:11:31;;;;;;;;;0.00;0.00;;;;;;;;5032304;28;8808;-81
2023/09/24 10:13:57;;;;;;;;;0.00;0.00;;;;;;;;5032444;28;8870;-77
2023/09/24 10:16:25;;;;;;;;;0.00;0.00;;;;;;;;5032156;28;8797;-77
2023/09/24 10:19:04;;;;;;;;;0.00;0.00;;;;;;;;5031878;28;8811;-78
2023/09/24 10:21:31;;;;;;;;;0.00;0.00;;;;;;;;5032159;28;8799;-76
2023/09/24 10:24:20;;;;;;;;;0.00;0.00;;;;;;;;5032379;28;8914;-76
2023/09/24 10:26:47;;;;;;;;;0.00;0.00;;;;;;;;5031815;28;8793;-75
2023/09/24 10:29:13;;;;;;;;;0.00;0.00;;;;;;;;5029461;28;8820;-76
2023/09/24 10:31:57;;;;;;;;;0.00;0.00;;;;;;;;5031901;28;8913;-77
2023/09/24 10:34:22;;;;;;;;;0.00;0.00;;;;;;;;5032159;28;8826;-75
2023/09/24 10:37:08;;;;;;;;;0.00;0.00;;;;;;;;5032072;28;8828;-75
2023/09/24 10:39:34;;;;;;;;;0.00;0.00;;;;;;;;5031088;28;8823;-76
2023/09/24 10:42:13;;;;;;;;;0.00;0.00;;;;;;;;5029931;28;8820;-78
2023/09/24 10:44:39;;;;;;;;;0.00;0.00;;;;;;;;5013527;28;8865;-81
2023/09/24 10:47:28;;;;;;;;;0.25;0.25;;;;;;;;5008554;28;9589;-75
2023/09/24 10:50:07;;;;;;;;;1.00;0.80;;;;;;;;5009543;28;11603;-80
2023/09/24 10:52:49;;;;;;;;;0.00;0.00;;;;;;;;5012154;28;8905;-74
2023/09/24 10:55:15;;;;;;;;;0.00;0.00;;;;;;;;4994236;28;8987;-77
2023/09/24 10:57:44;;;;;;;;;0.00;0.00;;;;;;;;5012024;28;8901;-75
2023/09/24 11:00:14;;;;;;;;;0.00;0.00;;;;;;;;5011846;28;8976;-75
2023/09/24 11:02:40;;;;;;;;;0.00;0.00;;;;;;;;5011208;28;8806;-76
2023/09/24 11:05:05;;;;;;;;;0.00;0.00;;;;;;;;5010868;28;8803;-74
2023/09/24 11:07:31;;;;;;;;;0.00;0.00;;;;;;;;5011767;28;8837;-74
2023/09/24 11:09:57;;;;;;;;;0.00;0.00;;;;;;;;5011713;28;8787;-74
2023/09/24 11:12:22;;;;;;;;;0.33;0.00;;;;;;;;5011712;28;8894;-74
2023/09/24 11:14:57;;;;;;;;;0.33;0.33;;;;;;;;5031046;28;8821;-74
2023/09/24 11:17:23;;;;;;;;;0.00;0.00;;;;;;;;5031117;28;8842;-72
2023/09/24 11:19:49;;;;;;;;;0.00;0.00;;;;;;;;5030713;28;8793;-74
2023/09/24 11:22:14;;;;;;;;;0.00;0.00;;;;;;;;5031308;28;9289;-74
2023/09/24 11:24:40;;;;;;;;;0.00;0.00;;;;;;;;5031089;28;8805;-74
2023/09/24 11:27:05;;;;;;;;;0.00;0.00;;;;;;;;5046415;28;8824;-75
2023/09/24 11:29:31;;;;;;;;;1.00;1.00;;;;;;;;5030989;28;8812;-75
2023/09/24 11:31:56;;;;;;;;;0.67;0.00;;;;;;;;5029515;28;8804;-75
2023/09/24 11:34:22;;;;;;;;;0.00;0.00;;;;;;;;5031206;28;8804;-75
2023/09/24 11:36:55;;;;;;;;;1.00;1.00;;;;;;;;5030648;28;9508;-75
2023/09/24 11:39:20;;;;;;;;;0.00;0.00;;;;;;;;5046094;28;11468;-74
2023/09/24 11:41:46;;;;;;;;;0.00;0.00;;;;;;;;5030748;28;9591;-74
2023/09/24 11:44:11;;;;;;;;;1.00;0.00;;;;;;;;5030784;28;8813;-74
2023/09/24 11:46:38;;;;;;;;;0.00;0.00;;;;;;;;5030576;28;8855;-74
2023/09/24 11:49:04;;;;;;;;;0.75;0.75;;;;;;;;5031178;28;8824;-74
2023/09/24 11:51:30;;;;;;;;;1.00;0.00;;;;;;;;5029601;28;9531;-74
2023/09/24 11:53:56;;;;;;;;;1.00;0.00;;;;;;;;5045955;28;8890;-74
2023/09/24 11:56:22;;;;;;;;;1.00;0.00;;;;;;;;5030255;28;8860;-74
2023/09/24 11:58:48;;;;;;;;;0.75;0.75;;;;;;;;5030570;28;9607;-74
2023/09/24 12:01:13;;;;;;;;;0.00;0.00;;;;;;;;5030275;28;8832;-74
2023/09/24 12:03:39;;;;;;;;;0.00;0.00;;;;;;;;5030604;28;8927;-74
2023/09/24 12:06:05;;;;;;;;;1.33;0.00;;;;;;;;5030518;28;8796;-74
2023/09/24 12:08:31;;;;;;;;;2.00;0.00;;;;;;;;5030450;28;8805;-74
2023/09/24 12:10:56;;;;;;;;;0.00;0.00;;;;;;;;5030517;28;8812;-73
2023/09/24 12:13:22;;;;;;;;;1.00;1.00;;;;;;;;5030139;28;8816;-74
2023/09/24 12:15:48;;;;;;;;;0.00;0.00;;;;;;;;5030205;28;8813;-74
2023/09/24 12:18:13;;;;;;;;;0.00;0.00;;;;;;;;5034096;28;8789;-73
2023/09/24 12:20:40;;;;;;;;;0.00;0.00;;;;;;;;5034357;28;12215;-73
2023/09/24 12:23:07;;;;;;;;;0.00;0.00;;;;;;;;5034702;28;8963;-73
2023/09/24 12:25:36;;;;;;;;;2.00;0.00;;;;;;;;5034415;28;8796;-73
2023/09/24 12:28:08;;;;;;;;;0.00;0.00;;;;;;;;5033165;28;8823;-74
2023/09/24 12:30:34;;;;;;;;;0.00;0.00;;;;;;;;5034467;28;8927;-74
2023/09/24 12:33:00;;;;;;;;;0.00;0.00;;;;;;;;5034075;28;8816;-74
2023/09/24 12:35:25;;;;;;;;;0.00;0.00;;;;;;;;5034288;28;8867;-74
2023/09/24 12:37:54;;;;;;;;;0.00;0.00;;;;;;;;5034306;28;8971;-73
2023/09/24 12:40:21;;;;;;;;;0.00;0.00;;;;;;;;5049380;28;8839;-74
2023/09/24 12:42:46;;;;;;;;;1.50;0.00;;;;;;;;5033967;28;8890;-74
2023/09/24 12:45:11;;;;;;;;;0.00;0.00;;;;;;;;5034157;28;8792;-74
2023/09/24 12:47:38;;;;;;;;;1.00;0.00;;;;;;;;5033739;28;8835;-74
2023/09/24 12:50:06;;;;;;;;;0.25;0.25;;;;;;;;5046614;22;8895;-81
2023/09/24 12:52:35;;;;;;;;;0.00;0.00;;;;;;;;5048581;28;8839;-78
2023/09/24 12:55:02;;;;;;;;;2.00;2.00;;;;;;;;5032255;28;9620;-77
2023/09/24 12:57:28;;;;;;;;;1.00;1.00;;;;;;;;5032811;28;8951;-77
2023/09/24 12:59:53;;;;;;;;;1.33;1.33;;;;;;;;5048091;28;9550;-75
2023/09/24 13:02:18;;;;;;;;;2.67;2.67;;;;;;;;5032290;28;8796;-72
2023/09/24 13:04:44;;;;;;;;;2.00;2.00;;;;;;;;5032043;28;8939;-72
2023/09/24 13:07:09;;;;;;;;;2.00;1.00;;;;;;;;5047328;28;8808;-72
2023/09/24 13:09:35;;;;;;;;;1.00;1.00;;;;;;;;5032377;28;8811;-73
2023/09/24 13:12:01;;;;;;;;;1.33;1.33;;;;;;;;5031013;28;8917;-72
2023/09/24 13:14:26;;;;;;;;;1.67;1.00;;;;;;;;5047740;28;8827;-73
2023/09/24 13:16:52;;;;;;;;;2.00;2.00;;;;;;;;5032078;28;8863;-72
2023/09/24 13:19:17;;;;;;;;;1.00;1.00;;;;;;;;5032212;28;8824;-74
2023/09/24 13:21:43;;;;;;;;;1.00;1.00;;;;;;;;5031904;28;8854;-74
2023/09/24 13:24:08;;;;;;;;;0.33;0.00;;;;;;;;5032094;28;8814;-74
2023/09/24 13:26:35;;;;;;;;;0.00;0.00;;;;;;;;5031586;28;8901;-73
2023/09/24 13:29:01;;;;;;;;;1.50;1.50;;;;;;;;5031415;28;9566;-73
2023/09/24 13:31:26;;;;;;;;;0.00;0.00;;;;;;;;5031956;28;8917;-73
2023/09/24 13:33:52;;;;;;;;;1.67;0.67;;;;;;;;5047061;28;8934;-73
2023/09/24 13:36:17;;;;;;;;;0.00;0.00;;;;;;;;5031588;28;8789;-73
2023/09/24 13:38:42;;;;;;;;;1.00;1.00;;;;;;;;5031335;28;8850;-73
2023/09/24 13:41:11;;;;;;;;;0.00;0.00;;;;;;;;5031761;28;8836;-72
2023/09/24 13:43:37;;;;;;;;;0.75;0.00;;;;;;;;5046577;28;8848;-72
2023/09/24 13:46:02;;;;;;;;;0.33;0.33;;;;;;;;5031208;28;8904;-72
2023/09/24 13:48:27;;;;;;;;;0.00;0.00;;;;;;;;5031221;28;8914;-72
2023/09/24 13:50:53;;;;;;;;;0.67;0.67;;;;;;;;5031581;28;8823;-74
2023/09/24 13:53:20;;;;;;;;;1.00;1.00;;;;;;;;5031448;28;8819;-73
2023/09/24 13:55:46;;;;;;;;;2.00;1.00;;;;;;;;5031468;28;8837;-73
2023/09/24 13:58:12;;;;;;;;;2.00;1.00;;;;;;;;5031379;28;9546;-73
2023/09/24 14:00:38;;;;;;;;;2.00;1.00;;;;;;;;5031311;28;8832;-73
2023/09/24 14:03:03;;;;;;;;;1.00;1.00;;;;;;;;5031320;28;8881;-72
2023/09/24 14:05:31;;;;;;;;;2.00;0.00;;;;;;;;5030088;28;8804;-72
2023/09/24 14:12:17;;;;;;;;;0.00;0.00;;;;;;;;5031241;28;8910;-72
2023/09/24 14:13:29;;;;;;;;;0.00;0.00;;;;;;;;5029945;28;8792;-73
2023/09/24 14:15:54;;;;;;;;;1.00;0.00;;;;;;;;5046175;28;8838;-71
2023/09/24 14:18:19;;;;;;;;;1.00;1.00;;;;;;;;5030787;28;8822;-72
2023/09/24 14:20:45;;;;;;;;;3.00;3.00;;;;;;;;5030696;28;8831;-72
2023/09/24 14:23:11;;;;;;;;;0.67;0.67;;;;;;;;5031171;28;8816;-70
2023/09/24 14:25:40;;;;;;;;;1.00;1.00;;;;;;;;5030693;28;8820;-73
2023/09/24 14:28:05;;;;;;;;;0.75;0.75;;;;;;;;5031278;28;8922;-72
2023/09/24 14:30:31;;;;;;;;;0.67;0.00;;;;;;;;5029552;28;8962;-73
2023/09/24 14:32:57;;;;;;;;;2.00;1.00;;;;;;;;5045588;28;8993;-72
2023/09/24 14:35:22;;;;;;;;;1.00;1.00;;;;;;;;5030455;28;8827;-72
2023/09/24 14:37:48;;;;;;;;;0.00;0.00;;;;;;;;5032593;28;8799;-74
2023/09/24 14:40:13;;;;;;;;;1.00;1.00;;;;;;;;5037970;28;8810;-73
2023/09/24 14:42:38;;;;;;;;;0.67;0.67;;;;;;;;5030506;28;8784;-72
2023/09/24 14:45:04;;;;;;;;;0.00;0.00;;;;;;;;5030117;28;8843;-72
2023/09/24 14:47:30;;;;;;;;;1.00;1.00;;;;;;;;5031810;28;9518;-72
2023/09/24 14:49:56;;;;;;;;;0.50;0.50;;;;;;;;5038447;28;8820;-73
2023/09/24 14:52:22;;;;;;;;;1.00;1.00;;;;;;;;5028974;28;8823;-74
2023/09/24 14:54:47;;;;;;;;;0.00;0.00;;;;;;;;5030882;28;8804;-73